sensor_id;sensor_type;location;lat;lon;timestamp;P1;durP1;ratioP1;P2;durP2;ratioP2
85986;SDS011;76562;42.702;23.250;2024-03-06T00:04:08;23.30;;;13.83;;
85986;SDS011;76562;42.702;23.250;2024-03-06T00:06:36;22.10;;;14.03;;
85986;SDS011;76562;42.702;23.250;2024-03-06T00:09:04;20.67;;;14.37;;
85986;SDS011;76562;42.702;23.250;2024-03-06T00:11:35;18.87;;;13.77;;
85986;SDS011;76562;42.702;23.250;2024-03-06T00:14:03;18.17;;;13.70;;
85986;SDS011;76562;42.702;23.250;2024-03-06T00:16:36;18.10;;;13.83;;
85986;SDS011;76562;42.702;23.250;2024-03-06T00:19:04;16.27;;;13.23;;
85986;SDS011;76562;42.702;23.250;2024-03-06T00:21:34;16.73;;;12.93;;
85986;SDS011;76562;42.702;23.250;2024-03-06T00:24:03;18.17;;;13.57;;
85986;SDS011;76562;42.702;23.250;2024-03-06T00:26:32;15.80;;;12.00;;
85986;SDS011;76562;42.702;23.250;2024-03-06T00:29:00;15.43;;;12.47;;
85986;SDS011;76562;42.702;23.250;2024-03-06T00:31:28;15.13;;;12.17;;
85986;SDS011;76562;42.702;23.250;2024-03-06T00:33:57;16.60;;;12.00;;
85986;SDS011;76562;42.702;23.250;2024-03-06T00:36:26;16.00;;;11.70;;
85986;SDS011;76562;42.702;23.250;2024-03-06T00:38:56;14.93;;;11.57;;
85986;SDS011;76562;42.702;23.250;2024-03-06T00:41:24;13.07;;;11.30;;
85986;SDS011;76562;42.702;23.250;2024-03-06T00:43:52;14.37;;;11.97;;
85986;SDS011;76562;42.702;23.250;2024-03-06T00:46:21;15.90;;;12.50;;
85986;SDS011;76562;42.702;23.250;2024-03-06T00:48:49;15.83;;;12.37;;
85986;SDS011;76562;42.702;23.250;2024-03-06T00:51:18;15.20;;;10.70;;
85986;SDS011;76562;42.702;23.250;2024-03-06T00:54:04;14.87;;;10.93;;
85986;SDS011;76562;42.702;23.250;2024-03-06T00:56:33;14.73;;;11.23;;
85986;SDS011;76562;42.702;23.250;2024-03-06T00:59:05;16.73;;;11.93;;
85986;SDS011;76562;42.702;23.250;2024-03-06T01:01:32;14.67;;;11.37;;
85986;SDS011;76562;42.702;23.250;2024-03-06T01:04:01;13.83;;;11.30;;
85986;SDS011;76562;42.702;23.250;2024-03-06T01:06:29;15.13;;;11.33;;
85986;SDS011;76562;42.702;23.250;2024-03-06T01:08:57;15.03;;;11.40;;
85986;SDS011;76562;42.702;23.250;2024-03-06T01:11:27;14.37;;;10.93;;
85986;SDS011;76562;42.702;23.250;2024-03-06T01:13:55;15.73;;;11.50;;
85986;SDS011;76562;42.702;23.250;2024-03-06T01:16:23;14.10;;;11.10;;
85986;SDS011;76562;42.702;23.250;2024-03-06T01:18:51;16.97;;;11.87;;
85986;SDS011;76562;42.702;23.250;2024-03-06T01:21:19;16.27;;;12.87;;
85986;SDS011;76562;42.702;23.250;2024-03-06T01:23:49;15.87;;;12.00;;
85986;SDS011;76562;42.702;23.250;2024-03-06T01:26:19;17.20;;;12.57;;
85986;SDS011;76562;42.702;23.250;2024-03-06T01:28:50;16.63;;;12.43;;
85986;SDS011;76562;42.702;23.250;2024-03-06T01:31:20;16.27;;;11.70;;
85986;SDS011;76562;42.702;23.250;2024-03-06T01:33:48;16.73;;;11.90;;
85986;SDS011;76562;42.702;23.250;2024-03-06T01:36:17;18.87;;;12.33;;
85986;SDS011;76562;42.702;23.250;2024-03-06T01:38:49;16.13;;;12.47;;
85986;SDS011;76562;42.702;23.250;2024-03-06T01:41:19;15.83;;;11.53;;
85986;SDS011;76562;42.702;23.250;2024-03-06T01:43:50;15.13;;;11.47;;
85986;SDS011;76562;42.702;23.250;2024-03-06T01:46:18;16.53;;;12.07;;
85986;SDS011;76562;42.702;23.250;2024-03-06T01:48:50;15.50;;;11.60;;
85986;SDS011;76562;42.702;23.250;2024-03-06T01:51:18;16.70;;;11.53;;
85986;SDS011;76562;42.702;23.250;2024-03-06T01:53:47;16.20;;;11.90;;
85986;SDS011;76562;42.702;23.250;2024-03-06T01:56:18;15.57;;;12.20;;
85986;SDS011;76562;42.702;23.250;2024-03-06T01:58:47;15.60;;;12.07;;
85986;SDS011;76562;42.702;23.250;2024-03-06T02:01:19;16.43;;;13.07;;
85986;SDS011;76562;42.702;23.250;2024-03-06T02:03:49;16.17;;;11.97;;
85986;SDS011;76562;42.702;23.250;2024-03-06T02:06:19;15.77;;;12.23;;
85986;SDS011;76562;42.702;23.250;2024-03-06T02:08:48;16.33;;;12.07;;
85986;SDS011;76562;42.702;23.250;2024-03-06T02:11:20;14.23;;;11.33;;
85986;SDS011;76562;42.702;23.250;2024-03-06T02:13:49;15.93;;;12.07;;
85986;SDS011;76562;42.702;23.250;2024-03-06T02:16:20;17.63;;;12.00;;
85986;SDS011;76562;42.702;23.250;2024-03-06T02:18:52;16.60;;;12.67;;
85986;SDS011;76562;42.702;23.250;2024-03-06T02:21:22;15.30;;;11.10;;
85986;SDS011;76562;42.702;23.250;2024-03-06T02:23:52;15.43;;;12.13;;
85986;SDS011;76562;42.702;23.250;2024-03-06T02:26:20;15.87;;;12.17;;
85986;SDS011;76562;42.702;23.250;2024-03-06T02:28:49;16.27;;;11.77;;
85986;SDS011;76562;42.702;23.250;2024-03-06T02:31:19;15.40;;;11.83;;
85986;SDS011;76562;42.702;23.250;2024-03-06T02:33:51;16.53;;;12.07;;
85986;SDS011;76562;42.702;23.250;2024-03-06T02:36:19;14.43;;;11.77;;
85986;SDS011;76562;42.702;23.250;2024-03-06T02:38:51;16.30;;;12.50;;
85986;SDS011;76562;42.702;23.250;2024-03-06T02:41:20;16.17;;;11.90;;
85986;SDS011;76562;42.702;23.250;2024-03-06T02:43:49;16.07;;;12.87;;
85986;SDS011;76562;42.702;23.250;2024-03-06T02:46:19;16.60;;;12.57;;
85986;SDS011;76562;42.702;23.250;2024-03-06T02:48:50;17.53;;;12.57;;
85986;SDS011;76562;42.702;23.250;2024-03-06T02:51:19;13.73;;;11.30;;
85986;SDS011;76562;42.702;23.250;2024-03-06T02:53:52;18.87;;;12.43;;
85986;SDS011;76562;42.702;23.250;2024-03-06T02:56:21;19.17;;;12.83;;
85986;SDS011;76562;42.702;23.250;2024-03-06T02:58:50;16.30;;;12.90;;
85986;SDS011;76562;42.702;23.250;2024-03-06T03:01:19;17.63;;;12.67;;
85986;SDS011;76562;42.702;23.250;2024-03-06T03:03:47;17.93;;;12.87;;
85986;SDS011;76562;42.702;23.250;2024-03-06T03:06:19;16.43;;;11.90;;
85986;SDS011;76562;42.702;23.250;2024-03-06T03:08:47;19.30;;;14.10;;
85986;SDS011;76562;42.702;23.250;2024-03-06T03:11:21;15.07;;;12.33;;
85986;SDS011;76562;42.702;23.250;2024-03-06T03:13:50;15.63;;;12.37;;
85986;SDS011;76562;42.702;23.250;2024-03-06T03:16:19;18.07;;;13.03;;
85986;SDS011;76562;42.702;23.250;2024-03-06T03:18:48;18.77;;;12.93;;
85986;SDS011;76562;42.702;23.250;2024-03-06T03:21:20;18.73;;;13.50;;
85986;SDS011;76562;42.702;23.250;2024-03-06T03:23:49;20.27;;;12.90;;
85986;SDS011;76562;42.702;23.250;2024-03-06T03:26:18;17.13;;;13.07;;
85986;SDS011;76562;42.702;23.250;2024-03-06T03:28:51;17.37;;;13.17;;
85986;SDS011;76562;42.702;23.250;2024-03-06T03:31:22;16.93;;;12.63;;
85986;SDS011;76562;42.702;23.250;2024-03-06T03:33:50;17.83;;;12.60;;
85986;SDS011;76562;42.702;23.250;2024-03-06T03:36:19;17.23;;;12.90;;
85986;SDS011;76562;42.702;23.250;2024-03-06T03:38:48;15.60;;;12.17;;
85986;SDS011;76562;42.702;23.250;2024-03-06T03:41:19;15.93;;;12.23;;
85986;SDS011;76562;42.702;23.250;2024-03-06T03:43:51;16.33;;;12.80;;
85986;SDS011;76562;42.702;23.250;2024-03-06T03:46:19;15.40;;;12.07;;
85986;SDS011;76562;42.702;23.250;2024-03-06T03:48:47;14.40;;;12.03;;
85986;SDS011;76562;42.702;23.250;2024-03-06T03:51:17;18.37;;;12.43;;
85986;SDS011;76562;42.702;23.250;2024-03-06T03:53:46;15.43;;;11.03;;
85986;SDS011;76562;42.702;23.250;2024-03-06T03:56:19;16.93;;;12.17;;
85986;SDS011;76562;42.702;23.250;2024-03-06T03:58:50;18.77;;;13.03;;
85986;SDS011;76562;42.702;23.250;2024-03-06T04:01:19;18.80;;;12.47;;
85986;SDS011;76562;42.702;23.250;2024-03-06T04:03:50;18.00;;;11.77;;
85986;SDS011;76562;42.702;23.250;2024-03-06T04:06:19;17.67;;;12.07;;
85986;SDS011;76562;42.702;23.250;2024-03-06T04:08:49;19.90;;;12.90;;
85986;SDS011;76562;42.702;23.250;2024-03-06T04:11:21;16.60;;;12.17;;
85986;SDS011;76562;42.702;23.250;2024-03-06T04:13:51;19.83;;;12.80;;
85986;SDS011;76562;42.702;23.250;2024-03-06T04:16:20;16.40;;;12.47;;
85986;SDS011;76562;42.702;23.250;2024-03-06T04:18:49;18.03;;;12.73;;
85986;SDS011;76562;42.702;23.250;2024-03-06T04:21:21;15.53;;;12.13;;
85986;SDS011;76562;42.702;23.250;2024-03-06T04:23:49;18.10;;;12.50;;
85986;SDS011;76562;42.702;23.250;2024-03-06T04:26:18;19.40;;;13.57;;
85986;SDS011;76562;42.702;23.250;2024-03-06T04:28:47;18.83;;;13.40;;
85986;SDS011;76562;42.702;23.250;2024-03-06T04:31:17;18.20;;;12.97;;
85986;SDS011;76562;42.702;23.250;2024-03-06T04:37:04;18.00;;;13.90;;
85986;SDS011;76562;42.702;23.250;2024-03-06T04:39:32;18.53;;;13.83;;
85986;SDS011;76562;42.702;23.250;2024-03-06T04:42:00;19.47;;;14.80;;
85986;SDS011;76562;42.702;23.250;2024-03-06T04:44:28;33.93;;;18.63;;
85986;SDS011;76562;42.702;23.250;2024-03-06T04:46:58;42.77;;;18.40;;
85986;SDS011;76562;42.702;23.250;2024-03-06T04:49:27;27.50;;;16.60;;
85986;SDS011;76562;42.702;23.250;2024-03-06T04:51:55;31.40;;;16.80;;
85986;SDS011;76562;42.702;23.250;2024-03-06T04:54:23;26.57;;;15.83;;
85986;SDS011;76562;42.702;23.250;2024-03-06T04:56:51;23.53;;;15.50;;
85986;SDS011;76562;42.702;23.250;2024-03-06T04:59:20;29.73;;;15.40;;
85986;SDS011;76562;42.702;23.250;2024-03-06T05:01:50;25.17;;;14.40;;
85986;SDS011;76562;42.702;23.250;2024-03-06T05:04:20;27.03;;;14.80;;
85986;SDS011;76562;42.702;23.250;2024-03-06T05:07:05;24.53;;;14.90;;
85986;SDS011;76562;42.702;23.250;2024-03-06T05:09:51;21.87;;;14.10;;
85986;SDS011;76562;42.702;23.250;2024-03-06T05:12:36;19.97;;;14.53;;
85986;SDS011;76562;42.702;23.250;2024-03-06T05:15:25;20.10;;;13.30;;
85986;SDS011;76562;42.702;23.250;2024-03-06T05:18:36;15.97;;;12.73;;
85986;SDS011;76562;42.702;23.250;2024-03-06T05:21:23;18.70;;;13.43;;
85986;SDS011;76562;42.702;23.250;2024-03-06T05:37:44;16.63;;;12.07;;
85986;SDS011;76562;42.702;23.250;2024-03-06T05:40:32;18.20;;;13.37;;
85986;SDS011;76562;42.702;23.250;2024-03-06T05:43:21;19.07;;;13.80;;
85986;SDS011;76562;42.702;23.250;2024-03-06T05:46:06;21.07;;;12.57;;
85986;SDS011;76562;42.702;23.250;2024-03-06T05:52:03;18.47;;;13.50;;
85986;SDS011;76562;42.702;23.250;2024-03-06T05:54:51;21.10;;;14.13;;
85986;SDS011;76562;42.702;23.250;2024-03-06T05:58:08;22.23;;;13.97;;
85986;SDS011;76562;42.702;23.250;2024-03-06T06:00:42;18.70;;;13.17;;
85986;SDS011;76562;42.702;23.250;2024-03-06T06:03:11;17.43;;;13.30;;
85986;SDS011;76562;42.702;23.250;2024-03-06T06:05:39;17.87;;;14.23;;
85986;SDS011;76562;42.702;23.250;2024-03-06T06:08:07;18.90;;;13.37;;
85986;SDS011;76562;42.702;23.250;2024-03-06T06:10:37;21.10;;;14.97;;
85986;SDS011;76562;42.702;23.250;2024-03-06T06:13:05;16.00;;;12.47;;
85986;SDS011;76562;42.702;23.250;2024-03-06T06:15:33;18.23;;;12.63;;
85986;SDS011;76562;42.702;23.250;2024-03-06T06:18:02;18.97;;;13.13;;
85986;SDS011;76562;42.702;23.250;2024-03-06T06:20:31;17.43;;;13.83;;
85986;SDS011;76562;42.702;23.250;2024-03-06T06:23:00;17.83;;;14.07;;
85986;SDS011;76562;42.702;23.250;2024-03-06T06:25:28;18.03;;;13.37;;
85986;SDS011;76562;42.702;23.250;2024-03-06T06:27:58;20.37;;;14.33;;
85986;SDS011;76562;42.702;23.250;2024-03-06T06:30:26;18.30;;;14.53;;
85986;SDS011;76562;42.702;23.250;2024-03-06T06:32:54;21.10;;;13.50;;
85986;SDS011;76562;42.702;23.250;2024-03-06T06:35:22;17.83;;;12.60;;
85986;SDS011;76562;42.702;23.250;2024-03-06T06:37:52;16.00;;;12.43;;
85986;SDS011;76562;42.702;23.250;2024-03-06T06:40:20;18.07;;;14.30;;
85986;SDS011;76562;42.702;23.250;2024-03-06T06:42:49;19.60;;;15.00;;
85986;SDS011;76562;42.702;23.250;2024-03-06T06:45:19;20.73;;;15.33;;
85986;SDS011;76562;42.702;23.250;2024-03-06T06:47:49;23.27;;;16.70;;
85986;SDS011;76562;42.702;23.250;2024-03-06T06:50:18;21.53;;;17.20;;
85986;SDS011;76562;42.702;23.250;2024-03-06T06:52:50;25.37;;;17.73;;
85986;SDS011;76562;42.702;23.250;2024-03-06T06:55:18;21.30;;;17.07;;
85986;SDS011;76562;42.702;23.250;2024-03-06T06:57:49;19.57;;;16.30;;
85986;SDS011;76562;42.702;23.250;2024-03-06T07:00:20;24.30;;;16.97;;
85986;SDS011;76562;42.702;23.250;2024-03-06T07:02:50;23.90;;;16.13;;
85986;SDS011;76562;42.702;23.250;2024-03-06T07:05:18;27.57;;;17.40;;
85986;SDS011;76562;42.702;23.250;2024-03-06T07:07:47;22.13;;;17.00;;
85986;SDS011;76562;42.702;23.250;2024-03-06T07:10:20;21.77;;;16.40;;
85986;SDS011;76562;42.702;23.250;2024-03-06T07:12:49;22.63;;;17.97;;
85986;SDS011;76562;42.702;23.250;2024-03-06T07:15:17;25.60;;;17.77;;
85986;SDS011;76562;42.702;23.250;2024-03-06T07:17:47;21.20;;;17.73;;
85986;SDS011;76562;42.702;23.250;2024-03-06T07:20:16;23.90;;;18.80;;
85986;SDS011;76562;42.702;23.250;2024-03-06T07:22:45;23.27;;;18.13;;
85986;SDS011;76562;42.702;23.250;2024-03-06T07:25:13;22.27;;;16.97;;
85986;SDS011;76562;42.702;23.250;2024-03-06T07:27:42;19.83;;;16.13;;
85986;SDS011;76562;42.702;23.250;2024-03-06T07:30:11;24.27;;;17.60;;
85986;SDS011;76562;42.702;23.250;2024-03-06T07:32:40;22.03;;;17.47;;
85986;SDS011;76562;42.702;23.250;2024-03-06T07:35:10;25.07;;;17.30;;
85986;SDS011;76562;42.702;23.250;2024-03-06T07:37:39;24.23;;;18.10;;
85986;SDS011;76562;42.702;23.250;2024-03-06T07:40:08;24.20;;;18.20;;
85986;SDS011;76562;42.702;23.250;2024-03-06T07:42:37;23.70;;;18.17;;
85986;SDS011;76562;42.702;23.250;2024-03-06T07:45:05;27.10;;;19.03;;
85986;SDS011;76562;42.702;23.250;2024-03-06T07:47:36;26.43;;;19.20;;
85986;SDS011;76562;42.702;23.250;2024-03-06T07:50:06;27.27;;;18.47;;
85986;SDS011;76562;42.702;23.250;2024-03-06T07:52:39;24.00;;;18.60;;
85986;SDS011;76562;42.702;23.250;2024-03-06T07:55:07;25.40;;;19.43;;
85986;SDS011;76562;42.702;23.250;2024-03-06T07:57:36;24.40;;;19.33;;
85986;SDS011;76562;42.702;23.250;2024-03-06T08:00:05;24.43;;;19.40;;
85986;SDS011;76562;42.702;23.250;2024-03-06T08:02:38;22.50;;;19.13;;
85986;SDS011;76562;42.702;23.250;2024-03-06T08:05:10;26.70;;;19.90;;
85986;SDS011;76562;42.702;23.250;2024-03-06T08:07:41;24.17;;;18.47;;
85986;SDS011;76562;42.702;23.250;2024-03-06T08:10:09;24.30;;;18.57;;
85986;SDS011;76562;42.702;23.250;2024-03-06T08:12:40;24.37;;;19.97;;
85986;SDS011;76562;42.702;23.250;2024-03-06T08:15:10;28.20;;;19.33;;
85986;SDS011;76562;42.702;23.250;2024-03-06T08:17:40;27.53;;;20.27;;
85986;SDS011;76562;42.702;23.250;2024-03-06T08:20:10;25.13;;;19.47;;
85986;SDS011;76562;42.702;23.250;2024-03-06T08:22:41;23.80;;;19.30;;
85986;SDS011;76562;42.702;23.250;2024-03-06T08:25:10;25.47;;;19.10;;
85986;SDS011;76562;42.702;23.250;2024-03-06T08:27:41;23.47;;;17.70;;
85986;SDS011;76562;42.702;23.250;2024-03-06T08:30:10;24.47;;;19.37;;
85986;SDS011;76562;42.702;23.250;2024-03-06T08:32:39;20.57;;;17.77;;
85986;SDS011;76562;42.702;23.250;2024-03-06T08:35:11;22.00;;;18.20;;
85986;SDS011;76562;42.702;23.250;2024-03-06T08:37:46;22.87;;;18.50;;
85986;SDS011;76562;42.702;23.250;2024-03-06T08:40:15;24.40;;;18.80;;
85986;SDS011;76562;42.702;23.250;2024-03-06T08:42:45;22.83;;;16.93;;
85986;SDS011;76562;42.702;23.250;2024-03-06T08:45:14;23.23;;;17.63;;
85986;SDS011;76562;42.702;23.250;2024-03-06T08:47:43;22.53;;;17.53;;
85986;SDS011;76562;42.702;23.250;2024-03-06T08:50:12;26.70;;;19.47;;
85986;SDS011;76562;42.702;23.250;2024-03-06T08:52:41;23.13;;;18.87;;
85986;SDS011;76562;42.702;23.250;2024-03-06T08:55:12;22.97;;;18.50;;
85986;SDS011;76562;42.702;23.250;2024-03-06T08:57:41;25.00;;;18.17;;
85986;SDS011;76562;42.702;23.250;2024-03-06T09:00:09;20.33;;;16.50;;
85986;SDS011;76562;42.702;23.250;2024-03-06T09:02:38;21.73;;;16.47;;
85986;SDS011;76562;42.702;23.250;2024-03-06T09:05:09;21.03;;;17.03;;
85986;SDS011;76562;42.702;23.250;2024-03-06T09:07:40;20.73;;;15.90;;
85986;SDS011;76562;42.702;23.250;2024-03-06T09:10:09;21.67;;;15.53;;
85986;SDS011;76562;42.702;23.250;2024-03-06T09:12:39;20.33;;;15.57;;
85986;SDS011;76562;42.702;23.250;2024-03-06T09:15:08;19.87;;;15.97;;
85986;SDS011;76562;42.702;23.250;2024-03-06T09:17:38;17.97;;;14.73;;
85986;SDS011;76562;42.702;23.250;2024-03-06T09:20:08;18.10;;;14.77;;
85986;SDS011;76562;42.702;23.250;2024-03-06T09:22:39;18.43;;;13.47;;
85986;SDS011;76562;42.702;23.250;2024-03-06T09:25:08;18.50;;;14.07;;
85986;SDS011;76562;42.702;23.250;2024-03-06T09:27:43;20.40;;;13.97;;
85986;SDS011;76562;42.702;23.250;2024-03-06T09:30:12;17.70;;;13.13;;
85986;SDS011;76562;42.702;23.250;2024-03-06T09:32:43;16.13;;;12.73;;
85986;SDS011;76562;42.702;23.250;2024-03-06T09:35:11;16.33;;;12.83;;
85986;SDS011;76562;42.702;23.250;2024-03-06T09:37:44;15.07;;;12.27;;
85986;SDS011;76562;42.702;23.250;2024-03-06T09:40:22;16.23;;;12.50;;
85986;SDS011;76562;42.702;23.250;2024-03-06T09:42:54;13.90;;;11.83;;
85986;SDS011;76562;42.702;23.250;2024-03-06T09:45:22;13.33;;;11.00;;
85986;SDS011;76562;42.702;23.250;2024-03-06T09:47:51;15.40;;;11.87;;
85986;SDS011;76562;42.702;23.250;2024-03-06T09:50:22;13.77;;;11.50;;
85986;SDS011;76562;42.702;23.250;2024-03-06T09:52:53;14.23;;;10.77;;
85986;SDS011;76562;42.702;23.250;2024-03-06T09:55:24;13.23;;;10.93;;
85986;SDS011;76562;42.702;23.250;2024-03-06T09:57:55;11.53;;;10.30;;
85986;SDS011;76562;42.702;23.250;2024-03-06T10:00:24;13.27;;;9.73;;
85986;SDS011;76562;42.702;23.250;2024-03-06T10:02:55;13.13;;;9.30;;
85986;SDS011;76562;42.702;23.250;2024-03-06T10:05:27;13.43;;;9.27;;
85986;SDS011;76562;42.702;23.250;2024-03-06T10:07:57;10.73;;;8.77;;
85986;SDS011;76562;42.702;23.250;2024-03-06T10:10:27;11.13;;;9.43;;
85986;SDS011;76562;42.702;23.250;2024-03-06T10:12:57;11.57;;;8.47;;
85986;SDS011;76562;42.702;23.250;2024-03-06T10:15:29;11.57;;;8.50;;
85986;SDS011;76562;42.702;23.250;2024-03-06T10:20:42;12.20;;;8.37;;
85986;SDS011;76562;42.702;23.250;2024-03-06T10:23:11;10.33;;;8.63;;
85986;SDS011;76562;42.702;23.250;2024-03-06T10:25:42;11.67;;;8.33;;
85986;SDS011;76562;42.702;23.250;2024-03-06T10:28:13;12.37;;;8.37;;
85986;SDS011;76562;42.702;23.250;2024-03-06T10:30:41;11.20;;;7.77;;
85986;SDS011;76562;42.702;23.250;2024-03-06T10:33:11;10.60;;;7.07;;
85986;SDS011;76562;42.702;23.250;2024-03-06T10:35:41;10.73;;;7.30;;
85986;SDS011;76562;42.702;23.250;2024-03-06T10:38:11;10.33;;;7.00;;
85986;SDS011;76562;42.702;23.250;2024-03-06T10:40:40;8.20;;;6.83;;
85986;SDS011;76562;42.702;23.250;2024-03-06T10:43:10;10.80;;;7.00;;
85986;SDS011;76562;42.702;23.250;2024-03-06T10:45:41;9.37;;;6.83;;
85986;SDS011;76562;42.702;23.250;2024-03-06T10:48:15;7.87;;;6.73;;
85986;SDS011;76562;42.702;23.250;2024-03-06T10:50:45;9.83;;;6.80;;
85986;SDS011;76562;42.702;23.250;2024-03-06T10:53:15;11.07;;;6.77;;
85986;SDS011;76562;42.702;23.250;2024-03-06T10:55:50;7.97;;;6.00;;
85986;SDS011;76562;42.702;23.250;2024-03-06T10:58:21;8.43;;;6.40;;
85986;SDS011;76562;42.702;23.250;2024-03-06T11:00:50;8.40;;;6.13;;
85986;SDS011;76562;42.702;23.250;2024-03-06T11:03:20;8.03;;;6.90;;
85986;SDS011;76562;42.702;23.250;2024-03-06T11:05:49;8.73;;;6.67;;
85986;SDS011;76562;42.702;23.250;2024-03-06T11:08:19;10.17;;;6.90;;
85986;SDS011;76562;42.702;23.250;2024-03-06T11:10:48;7.87;;;6.63;;
85986;SDS011;76562;42.702;23.250;2024-03-06T11:13:23;9.07;;;6.73;;
85986;SDS011;76562;42.702;23.250;2024-03-06T11:15:53;8.97;;;6.10;;
85986;SDS011;76562;42.702;23.250;2024-03-06T11:18:41;8.27;;;6.47;;
85986;SDS011;76562;42.702;23.250;2024-03-06T11:21:27;8.43;;;6.23;;
85986;SDS011;76562;42.702;23.250;2024-03-06T11:24:18;8.77;;;6.13;;
85986;SDS011;76562;42.702;23.250;2024-03-06T11:26:48;7.67;;;5.70;;
85986;SDS011;76562;42.702;23.250;2024-03-06T11:29:20;6.97;;;6.17;;
85986;SDS011;76562;42.702;23.250;2024-03-06T11:32:02;8.53;;;6.33;;
85986;SDS011;76562;42.702;23.250;2024-03-06T11:34:34;9.40;;;6.00;;
85986;SDS011;76562;42.702;23.250;2024-03-06T11:37:04;7.30;;;5.63;;
85986;SDS011;76562;42.702;23.250;2024-03-06T11:39:34;7.90;;;5.47;;
85986;SDS011;76562;42.702;23.250;2024-03-06T11:42:03;6.80;;;5.65;;
85986;SDS011;76562;42.702;23.250;2024-03-06T11:44:37;9.30;;;6.30;;
85986;SDS011;76562;42.702;23.250;2024-03-06T11:47:20;6.47;;;5.50;;
85986;SDS011;76562;42.702;23.250;2024-03-06T11:49:48;6.97;;;5.35;;
85986;SDS011;76562;42.702;23.250;2024-03-06T11:52:18;8.98;;;6.20;;
85986;SDS011;76562;42.702;23.250;2024-03-06T11:54:46;7.20;;;5.80;;
85986;SDS011;76562;42.702;23.250;2024-03-06T11:57:14;6.95;;;5.47;;
85986;SDS011;76562;42.702;23.250;2024-03-06T11:59:48;6.22;;;5.60;;
85986;SDS011;76562;42.702;23.250;2024-03-06T12:02:17;6.10;;;5.50;;
85986;SDS011;76562;42.702;23.250;2024-03-06T12:04:46;8.25;;;5.10;;
85986;SDS011;76562;42.702;23.250;2024-03-06T12:07:16;7.13;;;5.60;;
85986;SDS011;76562;42.702;23.250;2024-03-06T12:09:46;6.80;;;6.10;;
85986;SDS011;76562;42.702;23.250;2024-03-06T12:12:15;9.80;;;6.10;;
85986;SDS011;76562;42.702;23.250;2024-03-06T12:14:44;6.93;;;5.80;;
85986;SDS011;76562;42.702;23.250;2024-03-06T12:17:27;8.30;;;6.17;;
85986;SDS011;76562;42.702;23.250;2024-03-06T12:19:56;6.63;;;5.90;;
85986;SDS011;76562;42.702;23.250;2024-03-06T12:22:25;8.77;;;6.50;;
85986;SDS011;76562;42.702;23.250;2024-03-06T12:24:57;6.70;;;5.60;;
85986;SDS011;76562;42.702;23.250;2024-03-06T12:27:26;10.50;;;6.13;;
85986;SDS011;76562;42.702;23.250;2024-03-06T12:29:54;11.23;;;6.10;;
85986;SDS011;76562;42.702;23.250;2024-03-06T12:32:24;7.00;;;6.30;;
85986;SDS011;76562;42.702;23.250;2024-03-06T12:34:56;7.20;;;6.00;;
85986;SDS011;76562;42.702;23.250;2024-03-06T12:37:30;8.17;;;5.90;;
85986;SDS011;76562;42.702;23.250;2024-03-06T12:39:59;7.60;;;5.23;;
85986;SDS011;76562;42.702;23.250;2024-03-06T12:42:28;9.83;;;5.80;;
85986;SDS011;76562;42.702;23.250;2024-03-06T12:44:56;7.90;;;5.43;;
85986;SDS011;76562;42.702;23.250;2024-03-06T12:47:26;6.50;;;5.37;;
85986;SDS011;76562;42.702;23.250;2024-03-06T12:49:53;7.63;;;5.67;;
85986;SDS011;76562;42.702;23.250;2024-03-06T12:52:21;8.53;;;5.87;;
85986;SDS011;76562;42.702;23.250;2024-03-06T12:54:50;8.17;;;5.60;;
85986;SDS011;76562;42.702;23.250;2024-03-06T12:57:20;5.97;;;4.70;;
85986;SDS011;76562;42.702;23.250;2024-03-06T12:59:48;7.20;;;5.40;;
85986;SDS011;76562;42.702;23.250;2024-03-06T13:02:17;6.10;;;4.83;;
85986;SDS011;76562;42.702;23.250;2024-03-06T13:04:47;7.03;;;5.03;;
85986;SDS011;76562;42.702;23.250;2024-03-06T13:07:16;5.07;;;4.30;;
85986;SDS011;76562;42.702;23.250;2024-03-06T13:09:44;6.07;;;4.67;;
85986;SDS011;76562;42.702;23.250;2024-03-06T13:12:13;5.53;;;4.23;;
85986;SDS011;76562;42.702;23.250;2024-03-06T13:14:42;5.90;;;4.30;;
85986;SDS011;76562;42.702;23.250;2024-03-06T13:17:11;4.70;;;4.20;;
85986;SDS011;76562;42.702;23.250;2024-03-06T13:19:39;6.83;;;4.23;;
85986;SDS011;76562;42.702;23.250;2024-03-06T13:22:09;5.73;;;4.30;;
85986;SDS011;76562;42.702;23.250;2024-03-06T13:24:38;4.97;;;4.27;;
85986;SDS011;76562;42.702;23.250;2024-03-06T13:27:10;6.17;;;4.27;;
85986;SDS011;76562;42.702;23.250;2024-03-06T13:29:38;5.67;;;4.87;;
85986;SDS011;76562;42.702;23.250;2024-03-06T13:32:07;5.00;;;4.30;;
85986;SDS011;76562;42.702;23.250;2024-03-06T13:34:36;6.70;;;4.60;;
85986;SDS011;76562;42.702;23.250;2024-03-06T13:37:05;6.50;;;4.43;;
85986;SDS011;76562;42.702;23.250;2024-03-06T13:39:38;5.30;;;4.63;;
85986;SDS011;76562;42.702;23.250;2024-03-06T13:42:07;6.17;;;4.40;;
85986;SDS011;76562;42.702;23.250;2024-03-06T13:44:37;4.80;;;4.30;;
85986;SDS011;76562;42.702;23.250;2024-03-06T13:47:05;7.47;;;4.80;;
85986;SDS011;76562;42.702;23.250;2024-03-06T13:49:35;8.20;;;4.50;;
85986;SDS011;76562;42.702;23.250;2024-03-06T13:52:05;6.43;;;4.57;;
85986;SDS011;76562;42.702;23.250;2024-03-06T13:54:39;5.93;;;5.00;;
85986;SDS011;76562;42.702;23.250;2024-03-06T13:57:09;6.23;;;4.90;;
85986;SDS011;76562;42.702;23.250;2024-03-06T13:59:38;7.87;;;4.93;;
85986;SDS011;76562;42.702;23.250;2024-03-06T14:02:08;6.40;;;4.60;;
85986;SDS011;76562;42.702;23.250;2024-03-06T14:04:36;5.83;;;4.43;;
85986;SDS011;76562;42.702;23.250;2024-03-06T14:07:05;5.63;;;4.60;;
85986;SDS011;76562;42.702;23.250;2024-03-06T14:09:34;7.03;;;4.70;;
85986;SDS011;76562;42.702;23.250;2024-03-06T14:12:05;9.50;;;5.40;;
85986;SDS011;76562;42.702;23.250;2024-03-06T14:14:34;8.87;;;5.20;;
85986;SDS011;76562;42.702;23.250;2024-03-06T14:17:02;6.47;;;5.23;;
85986;SDS011;76562;42.702;23.250;2024-03-06T14:19:31;5.37;;;4.77;;
85986;SDS011;76562;42.702;23.250;2024-03-06T14:22:00;6.73;;;5.57;;
85986;SDS011;76562;42.702;23.250;2024-03-06T14:24:32;7.63;;;5.13;;
85986;SDS011;76562;42.702;23.250;2024-03-06T14:27:00;10.90;;;6.50;;
85986;SDS011;76562;42.702;23.250;2024-03-06T14:29:30;7.33;;;5.63;;
85986;SDS011;76562;42.702;23.250;2024-03-06T14:31:59;7.97;;;6.17;;
85986;SDS011;76562;42.702;23.250;2024-03-06T14:34:28;6.80;;;5.90;;
85986;SDS011;76562;42.702;23.250;2024-03-06T14:36:56;6.53;;;5.43;;
85986;SDS011;76562;42.702;23.250;2024-03-06T14:39:24;8.13;;;6.33;;
85986;SDS011;76562;42.702;23.250;2024-03-06T14:41:53;8.53;;;6.70;;
85986;SDS011;76562;42.702;23.250;2024-03-06T14:44:21;8.57;;;6.50;;
85986;SDS011;76562;42.702;23.250;2024-03-06T14:46:52;6.20;;;5.60;;
85986;SDS011;76562;42.702;23.250;2024-03-06T14:49:20;9.27;;;6.03;;
85986;SDS011;76562;42.702;23.250;2024-03-06T14:51:48;7.23;;;5.50;;
85986;SDS011;76562;42.702;23.250;2024-03-06T14:54:17;6.10;;;5.50;;
85986;SDS011;76562;42.702;23.250;2024-03-06T14:56:46;7.60;;;5.80;;
85986;SDS011;76562;42.702;23.250;2024-03-06T14:59:14;8.37;;;5.70;;
85986;SDS011;76562;42.702;23.250;2024-03-06T15:01:43;8.03;;;5.70;;